sensor_id;sensor_type;location;lat;lon;timestamp;P1;durP1;ratioP1;P2;durP2;ratioP2
8007;SDS011;4049;49.468;11.200;2022-07-04T00:02:16;1.83;;;1.63;;
8007;SDS011;4049;49.468;11.200;2022-07-04T00:04:44;1.73;;;1.50;;
8007;SDS011;4049;49.468;11.200;2022-07-04T00:07:11;2.37;;;1.53;;
8007;SDS011;4049;49.468;11.200;2022-07-04T00:09:38;1.60;;;1.50;;
8007;SDS011;4049;49.468;11.200;2022-07-04T00:12:06;2.00;;;1.60;;
8007;SDS011;4049;49.468;11.200;2022-07-04T00:14:33;1.67;;;1.40;;
8007;SDS011;4049;49.468;11.200;2022-07-04T00:17:00;2.83;;;1.87;;
8007;SDS011;4049;49.468;11.200;2022-07-04T00:19:27;2.90;;;1.87;;
8007;SDS011;4049;49.468;11.200;2022-07-04T00:21:55;2.10;;;1.80;;
8007;SDS011;4049;49.468;11.200;2022-07-04T00:24:22;2.37;;;1.77;;
8007;SDS011;4049;49.468;11.200;2022-07-04T00:26:49;2.00;;;1.80;;
8007;SDS011;4049;49.468;11.200;2022-07-04T00:29:16;1.60;;;1.50;;
8007;SDS011;4049;49.468;11.200;2022-07-04T00:31:43;1.70;;;1.60;;
8007;SDS011;4049;49.468;11.200;2022-07-04T00:34:10;2.23;;;2.00;;
8007;SDS011;4049;49.468;11.200;2022-07-04T00:36:37;2.00;;;1.80;;
8007;SDS011;4049;49.468;11.200;2022-07-04T00:39:05;1.87;;;1.60;;
8007;SDS011;4049;49.468;11.200;2022-07-04T00:41:32;2.00;;;1.80;;
8007;SDS011;4049;49.468;11.200;2022-07-04T00:44:00;2.07;;;1.77;;
8007;SDS011;4049;49.468;11.200;2022-07-04T00:46:27;2.10;;;1.90;;
8007;SDS011;4049;49.468;11.200;2022-07-04T00:48:54;2.30;;;1.83;;
8007;SDS011;4049;49.468;11.200;2022-07-04T00:51:21;3.27;;;1.93;;
8007;SDS011;4049;49.468;11.200;2022-07-04T00:53:49;2.00;;;1.80;;
8007;SDS011;4049;49.468;11.200;2022-07-04T00:56:18;2.23;;;1.83;;
8007;SDS011;4049;49.468;11.200;2022-07-04T00:58:46;1.73;;;1.63;;
8007;SDS011;4049;49.468;11.200;2022-07-04T01:01:13;1.90;;;1.80;;
8007;SDS011;4049;49.468;11.200;2022-07-04T01:03:40;2.00;;;1.83;;
8007;SDS011;4049;49.468;11.200;2022-07-04T01:06:07;2.20;;;2.00;;
8007;SDS011;4049;49.468;11.200;2022-07-04T01:08:34;1.97;;;1.80;;
8007;SDS011;4049;49.468;11.200;2022-07-04T01:11:02;1.80;;;1.70;;
8007;SDS011;4049;49.468;11.200;2022-07-04T01:13:30;2.07;;;1.87;;
8007;SDS011;4049;49.468;11.200;2022-07-04T01:15:57;1.73;;;1.63;;
8007;SDS011;4049;49.468;11.200;2022-07-04T01:18:24;2.60;;;1.97;;
8007;SDS011;4049;49.468;11.200;2022-07-04T01:20:53;1.90;;;1.80;;
8007;SDS011;4049;49.468;11.200;2022-07-04T01:23:20;2.07;;;1.83;;
8007;SDS011;4049;49.468;11.200;2022-07-04T01:25:47;1.80;;;1.70;;
8007;SDS011;4049;49.468;11.200;2022-07-04T01:28:15;1.90;;;1.57;;
8007;SDS011;4049;49.468;11.200;2022-07-04T01:30:44;1.73;;;1.60;;
8007;SDS011;4049;49.468;11.200;2022-07-04T01:33:11;2.00;;;1.80;;
8007;SDS011;4049;49.468;11.200;2022-07-04T01:35:38;3.20;;;1.80;;
8007;SDS011;4049;49.468;11.200;2022-07-04T01:38:06;2.20;;;2.00;;
8007;SDS011;4049;49.468;11.200;2022-07-04T01:40:33;2.10;;;1.90;;
8007;SDS011;4049;49.468;11.200;2022-07-04T01:43:00;2.37;;;2.17;;
8007;SDS011;4049;49.468;11.200;2022-07-04T01:45:27;2.10;;;1.90;;
8007;SDS011;4049;49.468;11.200;2022-07-04T01:47:54;2.40;;;2.20;;
8007;SDS011;4049;49.468;11.200;2022-07-04T01:50:22;2.30;;;2.10;;
8007;SDS011;4049;49.468;11.200;2022-07-04T01:52:49;2.63;;;2.07;;
8007;SDS011;4049;49.468;11.200;2022-07-04T01:55:17;2.23;;;2.03;;
8007;SDS011;4049;49.468;11.200;2022-07-04T01:57:44;2.30;;;2.10;;
8007;SDS011;4049;49.468;11.200;2022-07-04T02:00:11;2.57;;;2.20;;
8007;SDS011;4049;49.468;11.200;2022-07-04T02:02:56;2.00;;;1.90;;
8007;SDS011;4049;49.468;11.200;2022-07-04T02:05:23;2.47;;;1.90;;
8007;SDS011;4049;49.468;11.200;2022-07-04T02:07:50;1.77;;;1.67;;
8007;SDS011;4049;49.468;11.200;2022-07-04T02:10:18;2.93;;;1.90;;
8007;SDS011;4049;49.468;11.200;2022-07-04T02:12:45;2.27;;;2.00;;
8007;SDS011;4049;49.468;11.200;2022-07-04T02:15:26;2.47;;;2.03;;
8007;SDS011;4049;49.468;11.200;2022-07-04T02:17:54;2.07;;;1.87;;
8007;SDS011;4049;49.468;11.200;2022-07-04T02:20:21;2.10;;;1.90;;
8007;SDS011;4049;49.468;11.200;2022-07-04T02:22:48;3.63;;;1.73;;
8007;SDS011;4049;49.468;11.200;2022-07-04T02:25:15;3.00;;;1.87;;
8007;SDS011;4049;49.468;11.200;2022-07-04T02:27:44;2.27;;;1.70;;
8007;SDS011;4049;49.468;11.200;2022-07-04T02:30:11;2.10;;;1.80;;
8007;SDS011;4049;49.468;11.200;2022-07-04T02:32:39;2.00;;;1.80;;
8007;SDS011;4049;49.468;11.200;2022-07-04T02:35:06;2.13;;;1.93;;
8007;SDS011;4049;49.468;11.200;2022-07-04T02:37:34;1.87;;;1.73;;
8007;SDS011;4049;49.468;11.200;2022-07-04T02:40:01;2.37;;;2.10;;
8007;SDS011;4049;49.468;11.200;2022-07-04T02:42:29;1.73;;;1.63;;
8007;SDS011;4049;49.468;11.200;2022-07-04T02:44:57;2.00;;;1.80;;
8007;SDS011;4049;49.468;11.200;2022-07-04T02:47:24;2.90;;;1.80;;
8007;SDS011;4049;49.468;11.200;2022-07-04T02:49:52;2.33;;;1.77;;
8007;SDS011;4049;49.468;11.200;2022-07-04T02:52:19;1.90;;;1.80;;
8007;SDS011;4049;49.468;11.200;2022-07-04T02:54:46;1.93;;;1.60;;
8007;SDS011;4049;49.468;11.200;2022-07-04T02:57:13;2.33;;;1.80;;
8007;SDS011;4049;49.468;11.200;2022-07-04T02:59:41;1.83;;;1.73;;
8007;SDS011;4049;49.468;11.200;2022-07-04T03:02:09;1.97;;;1.67;;
8007;SDS011;4049;49.468;11.200;2022-07-04T03:04:36;2.00;;;1.80;;
8007;SDS011;4049;49.468;11.200;2022-07-04T03:07:05;2.10;;;1.90;;
8007;SDS011;4049;49.468;11.200;2022-07-04T03:09:32;2.30;;;2.10;;
8007;SDS011;4049;49.468;11.200;2022-07-04T03:11:59;2.33;;;2.13;;
8007;SDS011;4049;49.468;11.200;2022-07-04T03:14:26;2.27;;;2.03;;
8007;SDS011;4049;49.468;11.200;2022-07-04T03:16:53;3.63;;;2.00;;
8007;SDS011;4049;49.468;11.200;2022-07-04T03:19:22;2.10;;;1.90;;
8007;SDS011;4049;49.468;11.200;2022-07-04T03:21:49;2.30;;;2.10;;
8007;SDS011;4049;49.468;11.200;2022-07-04T03:24:16;2.23;;;2.03;;
8007;SDS011;4049;49.468;11.200;2022-07-04T03:26:43;2.03;;;1.80;;
8007;SDS011;4049;49.468;11.200;2022-07-04T03:29:09;2.13;;;1.93;;
8007;SDS011;4049;49.468;11.200;2022-07-04T03:31:36;2.10;;;1.90;;
8007;SDS011;4049;49.468;11.200;2022-07-04T03:34:03;2.53;;;2.03;;
8007;SDS011;4049;49.468;11.200;2022-07-04T03:36:32;2.30;;;1.87;;
8007;SDS011;4049;49.468;11.200;2022-07-04T03:38:59;3.03;;;1.80;;
8007;SDS011;4049;49.468;11.200;2022-07-04T03:41:25;2.70;;;1.73;;
8007;SDS011;4049;49.468;11.200;2022-07-04T03:43:52;1.87;;;1.77;;
8007;SDS011;4049;49.468;11.200;2022-07-04T03:46:19;2.47;;;2.03;;
8007;SDS011;4049;49.468;11.200;2022-07-04T03:48:46;2.47;;;1.67;;
8007;SDS011;4049;49.468;11.200;2022-07-04T03:51:13;2.30;;;2.00;;
8007;SDS011;4049;49.468;11.200;2022-07-04T03:53:42;1.97;;;1.80;;
8007;SDS011;4049;49.468;11.200;2022-07-04T03:56:09;2.50;;;2.30;;
8007;SDS011;4049;49.468;11.200;2022-07-04T03:58:36;2.67;;;1.90;;
8007;SDS011;4049;49.468;11.200;2022-07-04T04:01:03;2.53;;;2.10;;
8007;SDS011;4049;49.468;11.200;2022-07-04T04:03:30;3.73;;;2.00;;
8007;SDS011;4049;49.468;11.200;2022-07-04T04:06:14;1.90;;;1.80;;
8007;SDS011;4049;49.468;11.200;2022-07-04T04:08:43;2.37;;;1.87;;
8007;SDS011;4049;49.468;11.200;2022-07-04T04:11:10;2.30;;;2.10;;
8007;SDS011;4049;49.468;11.200;2022-07-04T04:13:37;2.60;;;2.30;;
8007;SDS011;4049;49.468;11.200;2022-07-04T04:16:04;2.30;;;2.10;;
8007;SDS011;4049;49.468;11.200;2022-07-04T04:18:31;2.30;;;2.10;;
8007;SDS011;4049;49.468;11.200;2022-07-04T04:20:58;2.90;;;2.23;;
8007;SDS011;4049;49.468;11.200;2022-07-04T04:23:25;8.10;;;2.13;;
8007;SDS011;4049;49.468;11.200;2022-07-04T04:25:53;3.00;;;2.40;;
8007;SDS011;4049;49.468;11.200;2022-07-04T04:28:20;2.40;;;2.20;;
8007;SDS011;4049;49.468;11.200;2022-07-04T04:30:47;2.13;;;1.93;;
8007;SDS011;4049;49.468;11.200;2022-07-04T04:33:14;2.40;;;2.20;;
8007;SDS011;4049;49.468;11.200;2022-07-04T04:35:41;2.50;;;2.30;;
8007;SDS011;4049;49.468;11.200;2022-07-04T04:38:09;2.30;;;2.10;;
8007;SDS011;4049;49.468;11.200;2022-07-04T04:40:36;2.40;;;2.20;;
8007;SDS011;4049;49.468;11.200;2022-07-04T04:43:04;2.60;;;2.40;;
8007;SDS011;4049;49.468;11.200;2022-07-04T04:45:31;3.53;;;2.17;;
8007;SDS011;4049;49.468;11.200;2022-07-04T04:47:58;2.67;;;2.47;;
8007;SDS011;4049;49.468;11.200;2022-07-04T04:50:25;3.10;;;2.37;;
8007;SDS011;4049;49.468;11.200;2022-07-04T04:52:52;2.33;;;1.80;;
8007;SDS011;4049;49.468;11.200;2022-07-04T04:55:19;3.97;;;2.10;;
8007;SDS011;4049;49.468;11.200;2022-07-04T04:57:47;6.33;;;2.40;;
8007;SDS011;4049;49.468;11.200;2022-07-04T05:00:15;2.40;;;2.20;;
8007;SDS011;4049;49.468;11.200;2022-07-04T05:02:42;2.47;;;2.27;;
8007;SDS011;4049;49.468;11.200;2022-07-04T05:05:09;2.33;;;2.00;;
8007;SDS011;4049;49.468;11.200;2022-07-04T05:07:36;3.83;;;2.20;;
8007;SDS011;4049;49.468;11.200;2022-07-04T05:10:04;2.37;;;2.17;;
8007;SDS011;4049;49.468;11.200;2022-07-04T05:12:32;3.00;;;2.13;;
8007;SDS011;4049;49.468;11.200;2022-07-04T05:14:59;2.53;;;2.27;;
8007;SDS011;4049;49.468;11.200;2022-07-04T05:17:27;4.13;;;2.27;;
8007;SDS011;4049;49.468;11.200;2022-07-04T05:19:54;2.63;;;2.20;;
8007;SDS011;4049;49.468;11.200;2022-07-04T05:22:21;3.13;;;2.50;;
8007;SDS011;4049;49.468;11.200;2022-07-04T05:24:48;3.47;;;2.50;;
8007;SDS011;4049;49.468;11.200;2022-07-04T05:27:15;3.80;;;2.23;;
8007;SDS011;4049;49.468;11.200;2022-07-04T05:29:42;5.43;;;2.90;;
8007;SDS011;4049;49.468;11.200;2022-07-04T05:32:09;2.53;;;2.20;;
8007;SDS011;4049;49.468;11.200;2022-07-04T05:34:37;3.07;;;2.40;;
8007;SDS011;4049;49.468;11.200;2022-07-04T05:37:04;4.53;;;2.40;;
8007;SDS011;4049;49.468;11.200;2022-07-04T05:39:31;4.30;;;2.07;;
8007;SDS011;4049;49.468;11.200;2022-07-04T05:41:58;4.60;;;2.37;;
8007;SDS011;4049;49.468;11.200;2022-07-04T05:44:25;2.47;;;2.20;;
8007;SDS011;4049;49.468;11.200;2022-07-04T05:46:53;3.40;;;2.20;;
8007;SDS011;4049;49.468;11.200;2022-07-04T05:49:20;3.30;;;2.20;;
8007;SDS011;4049;49.468;11.200;2022-07-04T05:51:49;2.40;;;2.20;;
8007;SDS011;4049;49.468;11.200;2022-07-04T05:54:17;2.77;;;2.40;;
8007;SDS011;4049;49.468;11.200;2022-07-04T05:56:44;3.37;;;2.70;;
8007;SDS011;4049;49.468;11.200;2022-07-04T05:59:11;2.90;;;2.40;;
8007;SDS011;4049;49.468;11.200;2022-07-04T06:01:38;5.70;;;2.53;;
8007;SDS011;4049;49.468;11.200;2022-07-04T06:04:05;4.47;;;2.43;;
8007;SDS011;4049;49.468;11.200;2022-07-04T06:06:32;5.73;;;2.37;;
8007;SDS011;4049;49.468;11.200;2022-07-04T06:09:00;4.27;;;2.30;;
8007;SDS011;4049;49.468;11.200;2022-07-04T06:11:28;2.30;;;2.10;;
8007;SDS011;4049;49.468;11.200;2022-07-04T06:13:55;2.93;;;2.57;;
8007;SDS011;4049;49.468;11.200;2022-07-04T06:16:22;2.40;;;2.17;;
8007;SDS011;4049;49.468;11.200;2022-07-04T06:18:49;3.73;;;2.40;;
8007;SDS011;4049;49.468;11.200;2022-07-04T06:21:16;2.60;;;2.40;;
8007;SDS011;4049;49.468;11.200;2022-07-04T06:23:43;4.03;;;2.23;;
8007;SDS011;4049;49.468;11.200;2022-07-04T06:26:11;2.27;;;2.07;;
8007;SDS011;4049;49.468;11.200;2022-07-04T06:28:38;2.50;;;2.30;;
8007;SDS011;4049;49.468;11.200;2022-07-04T06:31:05;5.20;;;2.60;;
8007;SDS011;4049;49.468;11.200;2022-07-04T06:33:32;3.47;;;2.40;;
8007;SDS011;4049;49.468;11.200;2022-07-04T06:36:20;3.27;;;2.53;;
8007;SDS011;4049;49.468;11.200;2022-07-04T06:38:45;2.97;;;2.47;;
8007;SDS011;4049;49.468;11.200;2022-07-04T06:41:14;2.50;;;2.30;;
8007;SDS011;4049;49.468;11.200;2022-07-04T06:43:41;2.87;;;2.50;;
8007;SDS011;4049;49.468;11.200;2022-07-04T06:46:08;2.57;;;2.37;;
8007;SDS011;4049;49.468;11.200;2022-07-04T06:48:35;2.50;;;2.30;;
8007;SDS011;4049;49.468;11.200;2022-07-04T06:51:02;5.23;;;2.20;;
8007;SDS011;4049;49.468;11.200;2022-07-04T06:53:29;2.50;;;2.30;;
8007;SDS011;4049;49.468;11.200;2022-07-04T06:55:56;3.20;;;2.40;;
8007;SDS011;4049;49.468;11.200;2022-07-04T06:58:25;2.60;;;2.40;;
8007;SDS011;4049;49.468;11.200;2022-07-04T07:00:52;2.93;;;2.63;;
8007;SDS011;4049;49.468;11.200;2022-07-04T07:03:19;3.67;;;2.70;;
8007;SDS011;4049;49.468;11.200;2022-07-04T07:05:46;2.60;;;2.30;;
8007;SDS011;4049;49.468;11.200;2022-07-04T07:08:13;2.80;;;2.60;;
8007;SDS011;4049;49.468;11.200;2022-07-04T07:10:40;2.57;;;2.30;;
8007;SDS011;4049;49.468;11.200;2022-07-04T07:13:07;2.57;;;2.37;;
8007;SDS011;4049;49.468;11.200;2022-07-04T07:15:36;2.80;;;2.50;;
8007;SDS011;4049;49.468;11.200;2022-07-04T07:18:04;3.90;;;2.73;;
8007;SDS011;4049;49.468;11.200;2022-07-04T07:20:31;2.53;;;2.33;;
8007;SDS011;4049;49.468;11.200;2022-07-04T07:23:01;2.70;;;2.50;;
8007;SDS011;4049;49.468;11.200;2022-07-04T07:25:28;3.97;;;2.37;;
8007;SDS011;4049;49.468;11.200;2022-07-04T07:27:55;4.40;;;2.57;;
8007;SDS011;4049;49.468;11.200;2022-07-04T07:30:22;2.97;;;2.47;;
8007;SDS011;4049;49.468;11.200;2022-07-04T07:32:50;4.33;;;2.80;;
8007;SDS011;4049;49.468;11.200;2022-07-04T07:35:17;2.90;;;2.60;;
8007;SDS011;4049;49.468;11.200;2022-07-04T07:37:44;3.07;;;2.53;;
8007;SDS011;4049;49.468;11.200;2022-07-04T07:40:11;2.83;;;2.40;;
8007;SDS011;4049;49.468;11.200;2022-07-04T07:42:38;3.30;;;2.60;;
8007;SDS011;4049;49.468;11.200;2022-07-04T07:45:06;2.87;;;2.53;;
8007;SDS011;4049;49.468;11.200;2022-07-04T07:47:33;3.43;;;2.30;;
8007;SDS011;4049;49.468;11.200;2022-07-04T07:50:02;2.93;;;2.40;;
8007;SDS011;4049;49.468;11.200;2022-07-04T07:52:29;2.93;;;2.23;;
8007;SDS011;4049;49.468;11.200;2022-07-04T07:54:56;3.17;;;2.50;;
8007;SDS011;4049;49.468;11.200;2022-07-04T07:57:24;2.93;;;2.27;;
8007;SDS011;4049;49.468;11.200;2022-07-04T07:59:51;3.87;;;2.20;;
8007;SDS011;4049;49.468;11.200;2022-07-04T08:02:18;3.27;;;2.50;;
8007;SDS011;4049;49.468;11.200;2022-07-04T08:05:07;5.27;;;2.40;;
8007;SDS011;4049;49.468;11.200;2022-07-04T08:07:34;4.67;;;2.63;;
8007;SDS011;4049;49.468;11.200;2022-07-04T08:10:00;4.93;;;2.50;;
8007;SDS011;4049;49.468;11.200;2022-07-04T08:12:28;4.43;;;2.43;;
8007;SDS011;4049;49.468;11.200;2022-07-04T08:14:55;2.60;;;2.40;;
8007;SDS011;4049;49.468;11.200;2022-07-04T08:17:22;2.70;;;2.50;;
8007;SDS011;4049;49.468;11.200;2022-07-04T08:19:49;3.70;;;2.63;;
8007;SDS011;4049;49.468;11.200;2022-07-04T08:22:17;3.77;;;2.50;;
8007;SDS011;4049;49.468;11.200;2022-07-04T08:24:44;3.50;;;2.60;;
8007;SDS011;4049;49.468;11.200;2022-07-04T08:27:12;2.63;;;2.40;;
8007;SDS011;4049;49.468;11.200;2022-07-04T08:29:40;2.43;;;2.23;;
8007;SDS011;4049;49.468;11.200;2022-07-04T08:32:07;5.30;;;2.73;;
8007;SDS011;4049;49.468;11.200;2022-07-04T08:34:34;2.50;;;2.30;;
8007;SDS011;4049;49.468;11.200;2022-07-04T08:37:01;3.27;;;2.57;;
8007;SDS011;4049;49.468;11.200;2022-07-04T08:39:29;3.07;;;2.80;;
8007;SDS011;4049;49.468;11.200;2022-07-04T08:41:58;3.00;;;2.40;;
8007;SDS011;4049;49.468;11.200;2022-07-04T08:44:28;2.77;;;2.50;;
8007;SDS011;4049;49.468;11.200;2022-07-04T08:46:57;2.80;;;2.37;;
8007;SDS011;4049;49.468;11.200;2022-07-04T08:49:26;4.27;;;2.93;;
8007;SDS011;4049;49.468;11.200;2022-07-04T08:51:58;2.67;;;2.30;;
8007;SDS011;4049;49.468;11.200;2022-07-04T08:54:26;2.83;;;2.57;;
8007;SDS011;4049;49.468;11.200;2022-07-04T08:57:14;3.30;;;2.50;;
8007;SDS011;4049;49.468;11.200;2022-07-04T09:00:00;4.53;;;2.80;;
8007;SDS011;4049;49.468;11.200;2022-07-04T09:02:29;3.40;;;3.00;;
8007;SDS011;4049;49.468;11.200;2022-07-04T09:04:56;3.17;;;2.77;;
8007;SDS011;4049;49.468;11.200;2022-07-04T09:07:23;3.90;;;2.70;;
8007;SDS011;4049;49.468;11.200;2022-07-04T09:09:50;3.73;;;2.60;;
8007;SDS011;4049;49.468;11.200;2022-07-04T09:12:19;3.70;;;2.80;;
8007;SDS011;4049;49.468;11.200;2022-07-04T09:14:46;6.17;;;3.10;;
8007;SDS011;4049;49.468;11.200;2022-07-04T09:17:13;4.33;;;2.90;;
8007;SDS011;4049;49.468;11.200;2022-07-04T09:19:40;3.23;;;2.80;;
8007;SDS011;4049;49.468;11.200;2022-07-04T09:22:08;3.10;;;2.80;;
8007;SDS011;4049;49.468;11.200;2022-07-04T09:24:46;3.05;;;2.75;;
8007;SDS011;4049;49.468;11.200;2022-07-04T09:27:31;6.30;;;2.70;;
8007;SDS011;4049;49.468;11.200;2022-07-04T09:29:59;3.38;;;2.63;;
8007;SDS011;4049;49.468;11.200;2022-07-04T09:32:34;3.03;;;2.80;;
8007;SDS011;4049;49.468;11.200;2022-07-04T09:35:05;4.18;;;2.55;;
8007;SDS011;4049;49.468;11.200;2022-07-04T09:37:34;3.40;;;2.90;;
8007;SDS011;4049;49.468;11.200;2022-07-04T09:40:03;3.05;;;2.75;;
8007;SDS011;4049;49.468;11.200;2022-07-04T09:42:37;3.75;;;2.67;;
8007;SDS011;4049;49.468;11.200;2022-07-04T09:45:06;2.60;;;2.40;;
8007;SDS011;4049;49.468;11.200;2022-07-04T09:47:35;3.00;;;2.80;;
8007;SDS011;4049;49.468;11.200;2022-07-04T09:50:03;2.53;;;2.33;;
8007;SDS011;4049;49.468;11.200;2022-07-04T09:52:32;3.78;;;2.60;;
8007;SDS011;4049;49.468;11.200;2022-07-04T09:55:09;2.70;;;2.50;;
8007;SDS011;4049;49.468;11.200;2022-07-04T09:57:37;3.00;;;2.53;;
8007;SDS011;4049;49.468;11.200;2022-07-04T10:00:20;3.97;;;2.58;;
8007;SDS011;4049;49.468;11.200;2022-07-04T10:02:49;2.60;;;2.40;;
8007;SDS011;4049;49.468;11.200;2022-07-04T10:05:19;5.35;;;2.70;;
8007;SDS011;4049;49.468;11.200;2022-07-04T10:07:47;2.55;;;2.35;;
8007;SDS011;4049;49.468;11.200;2022-07-04T10:10:21;2.30;;;2.10;;
8007;SDS011;4049;49.468;11.200;2022-07-04T10:12:58;2.80;;;2.60;;
8007;SDS011;4049;49.468;11.200;2022-07-04T10:15:26;3.05;;;2.40;;
8007;SDS011;4049;49.468;11.200;2022-07-04T10:17:53;3.95;;;3.08;;
8007;SDS011;4049;49.468;11.200;2022-07-04T10:20:20;3.90;;;2.60;;
8007;SDS011;4049;49.468;11.200;2022-07-04T10:22:47;2.63;;;2.30;;
8007;SDS011;4049;49.468;11.200;2022-07-04T10:25:15;2.40;;;2.17;;
8007;SDS011;4049;49.468;11.200;2022-07-04T10:27:42;2.40;;;2.20;;
8007;SDS011;4049;49.468;11.200;2022-07-04T10:30:12;2.42;;;2.22;;
8007;SDS011;4049;49.468;11.200;2022-07-04T10:32:42;4.13;;;2.20;;
8007;SDS011;4049;49.468;11.200;2022-07-04T10:35:12;2.33;;;2.10;;
8007;SDS011;4049;49.468;11.200;2022-07-04T10:37:59;2.75;;;2.35;;
8007;SDS011;4049;49.468;11.200;2022-07-04T10:40:41;2.55;;;2.35;;
8007;SDS011;4049;49.468;11.200;2022-07-04T10:46:30;2.90;;;2.20;;
8007;SDS011;4049;49.468;11.200;2022-07-04T10:49:02;5.18;;;2.15;;
8007;SDS011;4049;49.468;11.200;2022-07-04T10:51:37;3.00;;;2.08;;
8007;SDS011;4049;49.468;11.200;2022-07-04T10:54:07;2.67;;;2.38;;
8007;SDS011;4049;49.468;11.200;2022-07-04T10:59:20;2.20;;;2.00;;
8007;SDS011;4049;49.468;11.200;2022-07-04T11:01:52;2.25;;;2.00;;
8007;SDS011;4049;49.468;11.200;2022-07-04T11:04:45;2.20;;;2.00;;
8007;SDS011;4049;49.468;11.200;2022-07-04T11:07:14;2.45;;;2.13;;
8007;SDS011;4049;49.468;11.200;2022-07-04T11:09:43;2.28;;;2.00;;
8007;SDS011;4049;49.468;11.200;2022-07-04T11:12:11;2.22;;;2.03;;
8007;SDS011;4049;49.468;11.200;2022-07-04T11:14:40;2.05;;;1.67;;
8007;SDS011;4049;49.468;11.200;2022-07-04T11:17:10;4.22;;;1.95;;
8007;SDS011;4049;49.468;11.200;2022-07-04T11:19:38;1.70;;;1.60;;
8007;SDS011;4049;49.468;11.200;2022-07-04T11:22:07;4.75;;;2.17;;
8007;SDS011;4049;49.468;11.200;2022-07-04T11:24:36;2.33;;;2.13;;
8007;SDS011;4049;49.468;11.200;2022-07-04T11:27:03;5.07;;;2.05;;
8007;SDS011;4049;49.468;11.200;2022-07-04T11:29:33;2.67;;;1.80;;
8007;SDS011;4049;49.468;11.200;2022-07-04T11:32:00;2.53;;;2.20;;
8007;SDS011;4049;49.468;11.200;2022-07-04T11:34:33;4.25;;;2.05;;
8007;SDS011;4049;49.468;11.200;2022-07-04T11:37:01;2.22;;;2.00;;
8007;SDS011;4049;49.468;11.200;2022-07-04T11:39:29;3.35;;;1.90;;
8007;SDS011;4049;49.468;11.200;2022-07-04T11:41:56;2.30;;;2.10;;
8007;SDS011;4049;49.468;11.200;2022-07-04T11:44:41;3.25;;;2.00;;
8007;SDS011;4049;49.468;11.200;2022-07-04T11:47:35;2.92;;;2.08;;
8007;SDS011;4049;49.468;11.200;2022-07-04T11:50:06;2.13;;;1.90;;
8007;SDS011;4049;49.468;11.200;2022-07-04T11:52:41;2.90;;;2.00;;
8007;SDS011;4049;49.468;11.200;2022-07-04T11:55:09;4.70;;;1.92;;
8007;SDS011;4049;49.468;11.200;2022-07-04T11:57:39;3.72;;;2.20;;
8007;SDS011;4049;49.468;11.200;2022-07-04T12:00:08;2.10;;;1.90;;
8007;SDS011;4049;49.468;11.200;2022-07-04T12:02:37;3.13;;;2.05;;
8007;SDS011;4049;49.468;11.200;2022-07-04T12:05:06;3.33;;;1.83;;
8007;SDS011;4049;49.468;11.200;2022-07-04T12:07:36;1.70;;;1.60;;
8007;SDS011;4049;49.468;11.200;2022-07-04T12:10:08;2.00;;;1.80;;
8007;SDS011;4049;49.468;11.200;2022-07-04T12:12:49;4.25;;;2.50;;
8007;SDS011;4049;49.468;11.200;2022-07-04T12:15:18;1.60;;;1.50;;
8007;SDS011;4049;49.468;11.200;2022-07-04T12:17:48;2.53;;;1.90;;
8007;SDS011;4049;49.468;11.200;2022-07-04T12:20:18;1.85;;;1.75;;
8007;SDS011;4049;49.468;11.200;2022-07-04T12:22:49;1.92;;;1.77;;
8007;SDS011;4049;49.468;11.200;2022-07-04T12:25:21;3.13;;;1.88;;
8007;SDS011;4049;49.468;11.200;2022-07-04T12:27:53;2.38;;;1.85;;
8007;SDS011;4049;49.468;11.200;2022-07-04T12:30:22;2.15;;;1.90;;
8007;SDS011;4049;49.468;11.200;2022-07-04T12:32:50;3.60;;;2.08;;
8007;SDS011;4049;49.468;11.200;2022-07-04T12:35:32;1.92;;;1.70;;
8007;SDS011;4049;49.468;11.200;2022-07-04T12:38:08;2.20;;;2.00;;
8007;SDS011;4049;49.468;11.200;2022-07-04T12:40:48;2.15;;;2.03;;
8007;SDS011;4049;49.468;11.200;2022-07-04T12:43:16;1.80;;;1.70;;
8007;SDS011;4049;49.468;11.200;2022-07-04T12:45:44;1.80;;;1.70;;
8007;SDS011;4049;49.468;11.200;2022-07-04T12:48:16;1.80;;;1.65;;
8007;SDS011;4049;49.468;11.200;2022-07-04T12:50:50;1.63;;;1.50;;
8007;SDS011;4049;49.468;11.200;2022-07-04T12:53:18;4.32;;;1.92;;
8007;SDS011;4049;49.468;11.200;2022-07-04T12:55:46;2.28;;;1.70;;
8007;SDS011;4049;49.468;11.200;2022-07-04T12:58:14;2.05;;;1.90;;
8007;SDS011;4049;49.468;11.200;2022-07-04T13:00:42;2.47;;;1.85;;
8007;SDS011;4049;49.468;11.200;2022-07-04T13:03:09;2.58;;;2.00;;
8007;SDS011;4049;49.468;11.200;2022-07-04T13:05:37;1.98;;;1.70;;
8007;SDS011;4049;49.468;11.200;2022-07-04T13:08:06;2.28;;;1.98;;
8007;SDS011;4049;49.468;11.200;2022-07-04T13:10:33;2.75;;;1.85;;
8007;SDS011;4049;49.468;11.200;2022-07-04T13:13:00;4.72;;;2.03;;
8007;SDS011;4049;49.468;11.200;2022-07-04T13:15:26;1.52;;;1.42;;
8007;SDS011;4049;49.468;11.200;2022-07-04T13:17:53;1.50;;;1.40;;
8007;SDS011;4049;49.468;11.200;2022-07-04T13:20:20;1.70;;;1.60;;
8007;SDS011;4049;49.468;11.200;2022-07-04T13:22:47;2.95;;;1.65;;
8007;SDS011;4049;49.468;11.200;2022-07-04T13:25:16;1.90;;;1.63;;
8007;SDS011;4049;49.468;11.200;2022-07-04T13:27:43;1.98;;;1.55;;
8007;SDS011;4049;49.468;11.200;2022-07-04T13:30:10;1.88;;;1.67;;
8007;SDS011;4049;49.468;11.200;2022-07-04T13:32:38;2.83;;;2.03;;
8007;SDS011;4049;49.468;11.200;2022-07-04T13:35:05;2.03;;;1.60;;
8007;SDS011;4049;49.468;11.200;2022-07-04T13:37:33;1.67;;;1.58;;
8007;SDS011;4049;49.468;11.200;2022-07-04T13:40:00;2.05;;;1.60;;
8007;SDS011;4049;49.468;11.200;2022-07-04T13:42:28;3.75;;;1.70;;
8007;SDS011;4049;49.468;11.200;2022-07-04T13:45:13;1.77;;;1.50;;
8007;SDS011;4049;49.468;11.200;2022-07-04T13:47:41;1.70;;;1.60;;
8007;SDS011;4049;49.468;11.200;2022-07-04T13:50:08;1.55;;;1.45;;
8007;SDS011;4049;49.468;11.200;2022-07-04T13:52:35;1.40;;;1.30;;
8007;SDS011;4049;49.468;11.200;2022-07-04T13:55:02;1.50;;;1.40;;
8007;SDS011;4049;49.468;11.200;2022-07-04T13:57:31;1.70;;;1.50;;
8007;SDS011;4049;49.468;11.200;2022-07-04T13:59:58;2.08;;;1.83;;
8007;SDS011;4049;49.468;11.200;2022-07-04T14:02:25;1.48;;;1.38;;
8007;SDS011;4049;49.468;11.200;2022-07-04T14:04:52;2.40;;;1.65;;
8007;SDS011;4049;49.468;11.200;2022-07-04T14:07:19;4.65;;;1.50;;
8007;SDS011;4049;49.468;11.200;2022-07-04T14:09:46;1.50;;;1.40;;
8007;SDS011;4049;49.468;11.200;2022-07-04T14:12:13;2.15;;;1.50;;
8007;SDS011;4049;49.468;11.200;2022-07-04T14:14:42;1.65;;;1.55;;
8007;SDS011;4049;49.468;11.200;2022-07-04T14:17:10;1.83;;;1.50;;
8007;SDS011;4049;49.468;11.200;2022-07-04T14:19:37;5.25;;;2.00;;
8007;SDS011;4049;49.468;11.200;2022-07-04T14:22:04;5.28;;;1.48;;
8007;SDS011;4049;49.468;11.200;2022-07-04T14:24:31;1.65;;;1.55;;
8007;SDS011;4049;49.468;11.200;2022-07-04T14:26:58;1.50;;;1.40;;
8007;SDS011;4049;49.468;11.200;2022-07-04T14:29:25;1.33;;;1.23;;
8007;SDS011;4049;49.468;11.200;2022-07-04T14:31:54;2.33;;;1.67;;
8007;SDS011;4049;49.468;11.200;2022-07-04T14:34:21;1.60;;;1.50;;
8007;SDS011;4049;49.468;11.200;2022-07-04T14:36:48;1.45;;;1.35;;
8007;SDS011;4049;49.468;11.200;2022-07-04T14:39:15;1.35;;;1.25;;
8007;SDS011;4049;49.468;11.200;2022-07-04T14:41:42;1.48;;;1.38;;
8007;SDS011;4049;49.468;11.200;2022-07-04T14:44:12;3.40;;;1.42;;
8007;SDS011;4049;49.468;11.200;2022-07-04T14:46:39;1.52;;;1.42;;
8007;SDS011;4049;49.468;11.200;2022-07-04T14:49:08;1.50;;;1.40;;
8007;SDS011;4049;49.468;11.200;2022-07-04T14:51:36;1.30;;;1.20;;
8007;SDS011;4049;49.468;11.200;2022-07-04T14:54:05;1.50;;;1.40;;
8007;SDS011;4049;49.468;11.200;2022-07-04T14:56:31;2.22;;;1.40;;
8007;SDS011;4049;49.468;11.200;2022-07-04T14:58:58;1.60;;;1.30;;
8007;SDS011;4049;49.468;11.200;2022-07-04T15:01:25;1.30;;;1.20;;
8007;SDS011;4049;49.468;11.200;2022-07-04T15:03:53;3.00;;;1.33;;
8007;SDS011;4049;49.468;11.200;2022-07-04T15:06:21;1.85;;;1.20;;
8007;SDS011;4049;49.468;11.200;2022-07-04T15:08:48;1.58;;;1.40;;
8007;SDS011;4049;49.468;11.200;2022-07-04T15:11:15;3.88;;;1.70;;
8007;SDS011;4049;49.468;11.200;2022-07-04T15:13:42;1.55;;;1.45;;
8007;SDS011;4049;49.468;11.200;2022-07-04T15:16:09;1.52;;;1.42;;